Time,TemperatureF,DewpointF,PressureIn,WindDirection,WindDirectionDegrees,WindSpeedMPH,WindSpeedGustMPH,Humidity,HourlyPrecipIn,Conditions,Clouds,dailyrainin,SoftwareType,DateUTC
2013-06-02 00:02:00,67.0,66.0,29.92,ESE,122,0.0,3.0,95,0.13,,,0.66,,2013-06-02 05:02:00,
2013-06-02 00:12:00,67.0,66.0,29.92,ESE,122,0.0,3.0,95,0.13,,,0.66,,2013-06-02 05:12:00,
2013-06-02 00:22:00,68.0,67.0,29.96,NNW,343,3.0,6.0,95,0.10,,,0.66,,2013-06-02 05:22:00,
2013-06-02 00:52:00,68.0,67.0,29.97,NNE,18,7.0,13.0,95,0.11,,,0.77,,2013-06-02 05:52:00,
2013-06-02 01:01:00,68.0,67.0,29.94,NE,48,5.0,9.0,95,0.12,,,0.78,,2013-06-02 06:01:00,
2013-06-02 01:12:00,68.0,67.0,29.94,NE,48,5.0,9.0,95,0.12,,,0.78,,2013-06-02 06:12:00,
2013-06-02 01:21:00,68.0,67.0,29.91,East,81,7.0,11.0,96,0.12,,,0.78,,2013-06-02 06:21:00,
2013-06-02 01:32:00,68.0,67.0,29.91,East,95,2.0,8.0,96,0.13,,,0.79,,2013-06-02 06:32:00,
2013-06-02 01:42:00,68.0,67.0,29.91,East,95,2.0,8.0,96,0.13,,,0.79,,2013-06-02 06:42:00,
2013-06-02 01:52:00,68.0,67.0,29.90,East,95,2.0,7.0,95,0.04,,,0.79,,2013-06-02 06:52:00,
2013-06-02 02:01:00,68.0,67.0,29.91,SSE,161,1.0,9.0,95,0.01,,,0.79,,2013-06-02 07:01:00,
2013-06-02 02:11:00,68.0,67.0,29.91,SSE,161,1.0,9.0,95,0.01,,,0.79,,2013-06-02 07:11:00,
2013-06-02 02:21:00,68.0,67.0,29.93,SSE,162,1.0,7.0,95,0.01,,,0.79,,2013-06-02 07:21:00,
2013-06-02 02:32:00,68.0,67.0,29.92,SE,138,5.0,9.0,95,0.01,,,0.80,,2013-06-02 07:32:00,
2013-06-02 02:42:00,68.0,67.0,29.92,SE,138,5.0,9.0,95,0.01,,,0.80,,2013-06-02 07:42:00,
2013-06-02 02:52:00,68.0,67.0,29.92,SE,138,5.0,9.0,95,0.01,,,0.80,,2013-06-02 07:52:00,
2013-06-02 03:01:00,68.0,66.0,29.90,SE,132,7.0,11.0,94,0.01,,,0.80,,2013-06-02 08:01:00,
2013-06-02 03:11:00,68.0,66.0,29.90,SE,132,7.0,11.0,94,0.01,,,0.80,,2013-06-02 08:11:00,
2013-06-02 03:21:00,68.0,66.0,29.89,SE,140,7.0,11.0,94,0.01,,,0.80,,2013-06-02 08:21:00,
2013-06-02 03:32:00,68.0,66.0,29.88,SSE,160,7.0,13.0,94,0.00,,,0.80,,2013-06-02 08:32:00,
2013-06-02 03:41:00,68.0,66.0,29.88,SSE,160,7.0,13.0,94,0.00,,,0.80,,2013-06-02 08:41:00,
2013-06-02 03:52:00,68.0,67.0,29.92,SSE,165,10.0,20.0,95,0.01,,,0.81,,2013-06-02 08:52:00,
2013-06-02 04:01:00,68.0,67.0,29.93,SW,219,2.0,9.0,95,0.04,,,0.84,,2013-06-02 09:01:00,
2013-06-02 04:11:00,68.0,67.0,29.93,SW,219,2.0,9.0,95,0.04,,,0.84,,2013-06-02 09:11:00,
2013-06-02 04:21:00,68.0,67.0,29.92,ENE,66,2.0,5.0,95,0.04,,,0.84,,2013-06-02 09:21:00,
2013-06-02 04:33:00,68.0,67.0,29.91,SE,132,0.0,4.0,95,0.05,,,0.85,,2013-06-02 09:33:00,
2013-06-02 04:42:00,68.0,67.0,29.91,SE,132,0.0,4.0,95,0.05,,,0.85,,2013-06-02 09:42:00,
2013-06-02 04:53:00,68.0,67.0,29.91,ENE,57,0.0,3.0,95,0.06,,,0.86,,2013-06-02 09:53:00,
2013-06-02 05:02:00,68.0,67.0,29.88,SE,126,1.0,3.0,95,0.04,,,0.87,,2013-06-02 10:02:00,
2013-06-02 05:12:00,68.0,67.0,29.88,SE,126,1.0,3.0,95,0.04,,,0.87,,2013-06-02 10:12:00,
2013-06-02 05:22:00,68.0,67.0,29.91,WNW,288,0.0,3.0,95,0.03,,,0.87,,2013-06-02 10:22:00,
2013-06-02 05:32:00,68.0,67.0,29.92,WNW,288,0.0,2.0,95,0.02,,,0.87,,2013-06-02 10:32:00,
2013-06-02 05:42:00,68.0,67.0,29.92,WNW,288,0.0,2.0,95,0.02,,,0.87,,2013-06-02 10:42:00,
2013-06-02 05:52:00,68.0,67.0,29.93,WNW,288,0.0,0.0,95,0.01,,,0.87,,2013-06-02 10:52:00,
2013-06-02 06:02:00,68.0,67.0,29.94,East,83,2.0,5.0,96,0.01,,,0.87,,2013-06-02 11:02:00,
2013-06-02 06:12:00,68.0,67.0,29.94,East,83,2.0,5.0,96,0.01,,,0.87,,2013-06-02 11:12:00,
2013-06-02 06:21:00,68.0,67.0,29.95,SE,136,0.0,2.0,96,0.00,,,0.87,,2013-06-02 11:21:00,
2013-06-02 06:32:00,68.0,67.0,29.96,SSE,155,0.0,1.0,96,0.00,,,0.87,,2013-06-02 11:32:00,
2013-06-02 06:42:00,68.0,67.0,29.96,SSE,155,0.0,1.0,96,0.00,,,0.87,,2013-06-02 11:42:00,
2013-06-02 06:52:00,68.0,67.0,29.96,WSW,237,0.0,2.0,96,0.00,,,0.87,,2013-06-02 11:52:00,
2013-06-02 07:01:00,68.0,67.0,29.95,ESE,115,1.0,3.0,96,0.00,,,0.87,,2013-06-02 12:01:00,
2013-06-02 07:11:00,68.0,67.0,29.95,ESE,115,1.0,3.0,96,0.00,,,0.87,,2013-06-02 12:11:00,
2013-06-02 07:21:00,68.0,67.0,29.94,SSE,150,2.0,3.0,96,0.00,,,0.87,,2013-06-02 12:21:00,
2013-06-02 07:32:00,69.0,68.0,29.93,SE,130,0.0,4.0,95,0.00,,,0.87,,2013-06-02 12:32:00,
2013-06-02 07:42:00,69.0,68.0,29.93,SE,130,0.0,4.0,95,0.00,,,0.87,,2013-06-02 12:42:00,
2013-06-02 07:52:00,69.0,68.0,29.94,SE,143,2.0,4.0,95,0.00,,,0.87,,2013-06-02 12:52:00,
2013-06-02 08:01:00,69.0,68.0,29.94,ESE,108,3.0,9.0,95,0.00,,,0.87,,2013-06-02 13:01:00,
2013-06-02 08:11:00,69.0,68.0,29.94,ESE,108,3.0,9.0,95,0.00,,,0.87,,2013-06-02 13:11:00,
2013-06-02 08:21:00,69.0,67.0,29.93,South,180,4.0,7.0,94,0.00,,,0.87,,2013-06-02 13:21:00,
2013-06-02 08:32:00,69.0,67.0,29.93,SSE,150,4.0,7.0,93,0.00,,,0.87,,2013-06-02 13:32:00,
2013-06-02 08:42:00,69.0,67.0,29.93,SSE,150,4.0,7.0,93,0.00,,,0.87,,2013-06-02 13:42:00,
2013-06-02 08:52:00,69.0,67.0,29.92,SE,140,5.0,7.0,93,0.00,,,0.87,,2013-06-02 13:52:00,
2013-06-02 09:01:00,70.0,68.0,29.93,SE,134,4.0,7.0,93,0.00,,,0.87,,2013-06-02 14:01:00,
2013-06-02 09:11:00,70.0,68.0,29.93,SE,134,4.0,7.0,93,0.00,,,0.87,,2013-06-02 14:11:00,
2013-06-02 09:21:00,70.0,67.0,29.93,SSE,161,4.0,7.0,91,0.00,,,0.87,,2013-06-02 14:21:00,
2013-06-02 09:32:00,71.0,68.0,29.94,South,174,6.0,10.0,91,0.00,,,0.87,,2013-06-02 14:32:00,
2013-06-02 09:42:00,71.0,68.0,29.94,South,174,6.0,10.0,91,0.00,,,0.87,,2013-06-02 14:42:00,
2013-06-02 09:52:00,71.0,68.0,29.95,SSW,193,3.0,11.0,90,0.00,,,0.87,,2013-06-02 14:52:00,
2013-06-02 10:01:00,72.0,68.0,29.95,South,174,5.0,10.0,88,0.00,,,0.87,,2013-06-02 15:01:00,
2013-06-02 10:11:00,72.0,68.0,29.95,South,174,5.0,10.0,88,0.00,,,0.87,,2013-06-02 15:11:00,
2013-06-02 10:21:00,73.0,69.0,29.95,South,176,5.0,9.0,88,0.00,,,0.87,,2013-06-02 15:21:00,
2013-06-02 10:32:00,74.0,70.0,29.95,SW,227,3.0,8.0,86,0.00,,,0.87,,2013-06-02 15:32:00,
2013-06-02 10:43:00,74.0,70.0,29.95,SW,227,3.0,8.0,86,0.00,,,0.87,,2013-06-02 15:43:00,
2013-06-02 10:53:00,74.0,70.0,29.95,South,173,3.0,7.0,86,0.00,,,0.87,,2013-06-02 15:53:00,
2013-06-02 11:03:00,75.0,70.0,29.94,WSW,242,3.0,7.0,85,0.00,,,0.87,,2013-06-02 16:03:00,
2013-06-02 11:13:00,75.0,70.0,29.94,WSW,242,3.0,7.0,85,0.00,,,0.87,,2013-06-02 16:13:00,
2013-06-02 11:23:00,75.0,69.0,29.94,WSW,240,4.0,6.0,83,0.00,,,0.87,,2013-06-02 16:23:00,
2013-06-02 11:33:00,74.0,70.0,29.94,SSW,208,2.0,7.0,86,0.00,,,0.87,,2013-06-02 16:33:00,
2013-06-02 11:42:00,74.0,70.0,29.94,SSW,208,2.0,7.0,86,0.00,,,0.87,,2013-06-02 16:42:00,
2013-06-02 11:53:00,75.0,70.0,29.94,West,260,4.0,9.0,85,0.00,,,0.87,,2013-06-02 16:53:00,
2013-06-02 12:02:00,75.0,71.0,29.94,WSW,248,3.0,8.0,86,0.00,,,0.87,,2013-06-02 17:02:00,
2013-06-02 12:12:00,75.0,71.0,29.94,WSW,248,3.0,8.0,86,0.00,,,0.87,,2013-06-02 17:12:00,
2013-06-02 12:22:00,76.0,71.0,29.93,West,269,5.0,9.0,84,0.00,,,0.87,,2013-06-02 17:22:00,
2013-06-02 12:32:00,77.0,71.0,29.93,West,277,4.0,8.0,82,0.00,,,0.87,,2013-06-02 17:32:00,
2013-06-02 12:42:00,77.0,71.0,29.93,WNW,292,3.0,6.0,83,0.00,,,0.87,,2013-06-02 17:42:00,
2013-06-02 12:52:00,77.0,71.0,29.93,WNW,292,3.0,6.0,83,0.00,,,0.87,,2013-06-02 17:52:00,
2013-06-02 13:01:00,78.0,72.0,29.93,WSW,252,3.0,8.0,81,0.00,,,0.87,,2013-06-02 18:01:00,
2013-06-02 13:11:00,78.0,72.0,29.93,WSW,252,3.0,8.0,81,0.00,,,0.87,,2013-06-02 18:11:00,
2013-06-02 13:21:00,78.0,72.0,29.93,WNW,302,3.0,9.0,81,0.00,,,0.87,,2013-06-02 18:21:00,
2013-06-02 13:32:00,79.0,72.0,29.93,North,355,5.0,10.0,79,0.00,,,0.87,,2013-06-02 18:32:00,
2013-06-02 13:42:00,78.0,72.0,29.92,NNW,346,4.0,7.0,81,0.00,,,0.87,,2013-06-02 18:42:00,
2013-06-02 13:52:00,78.0,72.0,29.92,NNW,346,4.0,7.0,81,0.00,,,0.87,,2013-06-02 18:52:00,
2013-06-02 14:01:00,79.0,72.0,29.92,WNW,296,4.0,12.0,79,0.00,,,0.87,,2013-06-02 19:01:00,
2013-06-02 14:11:00,79.0,72.0,29.92,WNW,296,4.0,12.0,79,0.00,,,0.87,,2013-06-02 19:11:00,
2013-06-02 14:21:00,79.0,73.0,29.92,NNW,329,5.0,11.0,81,0.00,,,0.87,,2013-06-02 19:21:00,
2013-06-02 14:32:00,78.0,72.0,29.92,NNW,345,2.0,8.0,81,0.00,,,0.87,,2013-06-02 19:32:00,
2013-06-02 14:42:00,78.0,72.0,29.92,NNW,345,2.0,8.0,81,0.00,,,0.87,,2013-06-02 19:42:00,
2013-06-02 14:52:00,79.0,72.0,29.92,NW,325,3.0,6.0,79,0.00,,,0.87,,2013-06-02 19:52:00,
2013-06-02 15:02:00,79.0,72.0,29.91,NW,319,3.0,7.0,79,0.00,,,0.87,,2013-06-02 20:02:00,
2013-06-02 15:11:00,79.0,72.0,29.91,NW,319,3.0,7.0,79,0.00,,,0.87,,2013-06-02 20:11:00,
2013-06-02 15:22:00,80.0,73.0,29.91,NNW,327,3.0,7.0,79,0.00,,,0.87,,2013-06-02 20:22:00,
2013-06-02 15:32:00,79.0,72.0,29.91,WNW,303,3.0,7.0,79,0.00,,,0.87,,2013-06-02 20:32:00,
2013-06-02 15:42:00,79.0,72.0,29.91,WNW,303,3.0,7.0,79,0.00,,,0.87,,2013-06-02 20:42:00,
2013-06-02 15:52:00,78.0,71.0,29.91,West,275,1.0,4.0,78,0.00,,,0.87,,2013-06-02 20:52:00,
2013-06-02 16:01:00,79.0,72.0,29.91,North,355,2.0,5.0,78,0.00,,,0.87,,2013-06-02 21:01:00,
2013-06-02 16:12:00,79.0,72.0,29.91,North,355,2.0,5.0,78,0.00,,,0.87,,2013-06-02 21:12:00,
2013-06-02 16:21:00,79.0,72.0,29.90,West,271,3.0,7.0,78,0.00,,,0.87,,2013-06-02 21:21:00,
2013-06-02 16:33:00,80.0,72.0,29.90,NW,306,3.0,6.0,78,0.00,,,0.87,,2013-06-02 21:33:00,
2013-06-02 16:42:00,80.0,72.0,29.90,NW,306,3.0,6.0,78,0.00,,,0.87,,2013-06-02 21:42:00,
2013-06-02 16:53:00,79.0,72.0,29.89,NW,309,3.0,8.0,78,0.00,,,0.87,,2013-06-02 21:53:00,
2013-06-02 17:03:00,80.0,72.0,29.89,NNW,340,5.0,8.0,77,0.00,,,0.87,,2013-06-02 22:03:00,
2013-06-02 17:12:00,80.0,72.0,29.89,NNW,340,5.0,8.0,77,0.00,,,0.87,,2013-06-02 22:12:00,
2013-06-02 17:23:00,79.0,72.0,29.89,NNW,334,5.0,8.0,79,0.00,,,0.87,,2013-06-02 22:23:00,
2013-06-02 17:33:00,79.0,72.0,29.88,NNW,342,3.0,8.0,79,0.00,,,0.87,,2013-06-02 22:33:00,
2013-06-02 17:42:00,79.0,72.0,29.88,NNW,342,3.0,8.0,79,0.00,,,0.87,,2013-06-02 22:42:00,
2013-06-02 17:53:00,78.0,72.0,29.88,NNW,348,4.0,8.0,81,0.00,,,0.87,,2013-06-02 22:53:00,
2013-06-02 18:02:00,78.0,71.0,29.88,NNW,338,4.0,6.0,78,0.00,,,0.51,,2013-06-02 23:02:00,
2013-06-02 18:12:00,78.0,71.0,29.88,NNW,338,4.0,6.0,78,0.00,,,0.51,,2013-06-02 23:12:00,
2013-06-02 18:22:00,78.0,72.0,29.88,NNW,345,2.0,6.0,81,0.00,,,0.51,,2013-06-02 23:22:00,
2013-06-02 18:32:00,77.0,71.0,29.88,NW,317,4.0,7.0,83,0.00,,,0.51,,2013-06-02 23:32:00,
2013-06-02 18:42:00,77.0,71.0,29.88,NW,317,4.0,7.0,83,0.00,,,0.51,,2013-06-02 23:42:00,
2013-06-02 18:52:00,78.0,72.0,29.88,NNW,345,4.0,9.0,83,0.00,,,0.51,,2013-06-02 23:52:00,
2013-06-02 19:01:00,78.0,72.0,29.88,North,5,4.0,8.0,82,0.00,,,0.49,,2013-06-03 00:01:00,
2013-06-02 19:12:00,78.0,72.0,29.88,North,5,4.0,8.0,82,0.00,,,0.49,,2013-06-03 00:12:00,
2013-06-02 19:21:00,77.0,71.0,29.88,NNW,347,2.0,7.0,83,0.00,,,0.49,,2013-06-03 00:21:00,
2013-06-02 19:32:00,76.0,71.0,29.88,NW,325,4.0,7.0,84,0.00,,,0.49,,2013-06-03 00:32:00,
2013-06-02 19:42:00,76.0,71.0,29.88,NW,325,4.0,7.0,84,0.00,,,0.49,,2013-06-03 00:42:00,
2013-06-02 19:52:00,75.0,70.0,29.88,NNW,338,4.0,10.0,84,0.00,,,0.49,,2013-06-03 00:52:00,
2013-06-02 20:32:00,74.0,71.0,29.88,NE,44,1.0,5.0,89,0.00,,,0.49,,2013-06-03 01:32:00,
2013-06-02 20:42:00,74.0,71.0,29.88,NE,44,1.0,5.0,89,0.00,,,0.49,,2013-06-03 01:42:00,
2013-06-02 20:52:00,74.0,71.0,29.88,North,5,0.0,3.0,90,0.00,,,0.49,,2013-06-03 01:52:00,
2013-06-02 21:02:00,73.0,71.0,29.89,NNW,346,0.0,3.0,92,0.00,,,0.49,,2013-06-03 02:02:00,
2013-06-02 21:12:00,73.0,71.0,29.89,NNW,346,0.0,3.0,92,0.00,,,0.49,,2013-06-03 02:12:00,
2013-06-02 21:22:00,73.0,71.0,29.89,NNW,346,1.0,3.0,93,0.00,,,0.49,,2013-06-03 02:22:00,
2013-06-02 21:32:00,73.0,71.0,29.89,NNW,346,0.0,0.0,93,0.00,,,0.49,,2013-06-03 02:32:00,
2013-06-02 21:42:00,73.0,71.0,29.89,NNW,346,0.0,0.0,93,0.00,,,0.49,,2013-06-03 02:42:00,
2013-06-02 21:52:00,73.0,71.0,29.90,NNW,346,0.0,0.0,94,0.00,,,0.49,,2013-06-03 02:52:00,
2013-06-02 22:02:00,73.0,71.0,29.91,NNW,346,0.0,0.0,93,0.00,,,0.49,,2013-06-03 03:02:00,
2013-06-02 22:12:00,73.0,71.0,29.91,NNW,346,0.0,0.0,93,0.00,,,0.49,,2013-06-03 03:12:00,
2013-06-02 22:22:00,73.0,71.0,29.91,NNW,346,0.0,1.0,93,0.00,,,0.49,,2013-06-03 03:22:00,
2013-06-02 22:33:00,73.0,71.0,29.91,North,350,1.0,2.0,93,0.00,,,0.49,,2013-06-03 03:33:00,
2013-06-02 22:43:00,73.0,71.0,29.91,North,350,1.0,2.0,93,0.00,,,0.49,,2013-06-03 03:43:00,
2013-06-02 22:53:00,73.0,71.0,29.91,North,355,0.0,3.0,93,0.00,,,0.49,,2013-06-03 03:53:00,
2013-06-02 23:03:00,73.0,71.0,29.91,North,355,0.0,0.0,93,0.00,,,0.33,,2013-06-03 04:03:00,
2013-06-02 23:13:00,73.0,71.0,29.91,North,355,0.0,0.0,93,0.00,,,0.33,,2013-06-03 04:13:00,
2013-06-02 23:23:00,73.0,71.0,29.91,NNW,342,0.0,2.0,94,0.00,,,0.33,,2013-06-03 04:23:00,
2013-06-02 23:33:00,72.0,70.0,29.91,NNW,342,0.0,1.0,95,0.00,,,0.33,,2013-06-03 04:33:00,
2013-06-02 23:42:00,72.0,70.0,29.91,NNW,342,0.0,1.0,95,0.00,,,0.33,,2013-06-03 04:42:00,
2013-06-02 23:53:00,72.0,70.0,29.91,NNW,342,0.0,2.0,95,0.00,,,0.33,,2013-06-03 04:53:00,